sensor_id;sensor_type;location;lat;lon;timestamp;pressure;altitude;pressure_sealevel;temperature;humidity
19624;BME280;9959;49.798;9.928;2023-04-26T00:00:33;99717.97;;;3.58;84.21
19624;BME280;9959;49.798;9.928;2023-04-26T00:03:00;99716.16;;;3.43;84.12
19624;BME280;9959;49.798;9.928;2023-04-26T00:05:28;99723.13;;;3.27;84.00
19624;BME280;9959;49.798;9.928;2023-04-26T00:07:55;99718.13;;;3.40;83.55
19624;BME280;9959;49.798;9.928;2023-04-26T00:10:22;99723.50;;;3.49;81.24
19624;BME280;9959;49.798;9.928;2023-04-26T00:12:49;99717.00;;;3.67;80.32
19624;BME280;9959;49.798;9.928;2023-04-26T00:15:16;99716.66;;;3.54;81.79
19624;BME280;9959;49.798;9.928;2023-04-26T00:17:42;99723.00;;;3.53;83.85
19624;BME280;9959;49.798;9.928;2023-04-26T00:20:10;99723.66;;;3.55;83.56
19624;BME280;9959;49.798;9.928;2023-04-26T00:22:38;99728.94;;;3.39;84.53
19624;BME280;9959;49.798;9.928;2023-04-26T00:25:05;99731.44;;;3.32;85.74
19624;BME280;9959;49.798;9.928;2023-04-26T00:27:32;99740.56;;;3.30;85.93
19624;BME280;9959;49.798;9.928;2023-04-26T00:29:59;99734.25;;;3.23;85.42
19624;BME280;9959;49.798;9.928;2023-04-26T00:32:26;99734.56;;;3.20;85.98
19624;BME280;9959;49.798;9.928;2023-04-26T00:34:53;99729.56;;;3.17;86.64
19624;BME280;9959;49.798;9.928;2023-04-26T00:37:19;99743.53;;;3.11;86.80
19624;BME280;9959;49.798;9.928;2023-04-26T00:39:47;99738.16;;;3.02;87.56
19624;BME280;9959;49.798;9.928;2023-04-26T00:42:14;99740.50;;;2.97;88.23
19624;BME280;9959;49.798;9.928;2023-04-26T00:44:41;99735.81;;;2.91;89.05
19624;BME280;9959;49.798;9.928;2023-04-26T00:47:08;99733.03;;;3.09;88.42
19624;BME280;9959;49.798;9.928;2023-04-26T00:49:35;99743.47;;;2.94;88.38
19624;BME280;9959;49.798;9.928;2023-04-26T00:52:02;99742.50;;;3.03;89.78
19624;BME280;9959;49.798;9.928;2023-04-26T00:54:29;99743.44;;;2.86;90.84
19624;BME280;9959;49.798;9.928;2023-04-26T00:56:56;99750.38;;;2.79;91.88
19624;BME280;9959;49.798;9.928;2023-04-26T00:59:23;99741.66;;;2.95;91.34
19624;BME280;9959;49.798;9.928;2023-04-26T01:01:52;99742.75;;;2.84;91.47
19624;BME280;9959;49.798;9.928;2023-04-26T01:04:19;99735.41;;;2.78;91.40
19624;BME280;9959;49.798;9.928;2023-04-26T01:06:47;99744.13;;;2.88;90.73
19624;BME280;9959;49.798;9.928;2023-04-26T01:09:14;99736.91;;;2.72;90.54
19624;BME280;9959;49.798;9.928;2023-04-26T01:11:42;99737.75;;;2.73;89.71
19624;BME280;9959;49.798;9.928;2023-04-26T01:14:09;99740.56;;;2.80;90.46
19624;BME280;9959;49.798;9.928;2023-04-26T01:16:36;99738.44;;;2.83;90.83
19624;BME280;9959;49.798;9.928;2023-04-26T01:19:08;99738.13;;;2.86;91.61
19624;BME280;9959;49.798;9.928;2023-04-26T01:21:36;99742.69;;;2.68;93.26
19624;BME280;9959;49.798;9.928;2023-04-26T01:24:04;99749.78;;;2.59;92.57
19624;BME280;9959;49.798;9.928;2023-04-26T01:26:31;99744.31;;;2.61;93.13
19624;BME280;9959;49.798;9.928;2023-04-26T01:28:58;99744.16;;;2.62;92.42
19624;BME280;9959;49.798;9.928;2023-04-26T01:31:25;99746.41;;;2.49;92.73
19624;BME280;9959;49.798;9.928;2023-04-26T01:33:52;99749.94;;;2.58;91.81
19624;BME280;9959;49.798;9.928;2023-04-26T01:36:18;99750.69;;;2.68;92.10
19624;BME280;9959;49.798;9.928;2023-04-26T01:38:45;99749.38;;;2.72;91.91
19624;BME280;9959;49.798;9.928;2023-04-26T01:41:12;99748.19;;;2.75;90.69
19624;BME280;9959;49.798;9.928;2023-04-26T01:43:38;99745.56;;;2.49;92.56
19624;BME280;9959;49.798;9.928;2023-04-26T01:46:05;99748.88;;;2.43;93.27
19624;BME280;9959;49.798;9.928;2023-04-26T01:48:32;99744.97;;;2.29;94.01
19624;BME280;9959;49.798;9.928;2023-04-26T01:50:59;99743.44;;;2.26;93.29
19624;BME280;9959;49.798;9.928;2023-04-26T01:53:26;99746.56;;;2.48;93.17
19624;BME280;9959;49.798;9.928;2023-04-26T01:55:53;99745.53;;;2.41;91.86
19624;BME280;9959;49.798;9.928;2023-04-26T01:58:21;99751.84;;;2.40;91.46
19624;BME280;9959;49.798;9.928;2023-04-26T02:00:48;99755.81;;;2.35;91.39
19624;BME280;9959;49.798;9.928;2023-04-26T02:03:15;99749.06;;;2.23;91.82
19624;BME280;9959;49.798;9.928;2023-04-26T02:05:42;99749.03;;;2.15;92.77
19624;BME280;9959;49.798;9.928;2023-04-26T02:08:09;99748.25;;;2.23;93.53
19624;BME280;9959;49.798;9.928;2023-04-26T02:10:36;99750.38;;;2.19;94.30
19624;BME280;9959;49.798;9.928;2023-04-26T02:13:03;99745.03;;;2.11;94.21
19624;BME280;9959;49.798;9.928;2023-04-26T02:15:29;99748.50;;;2.12;94.02
19624;BME280;9959;49.798;9.928;2023-04-26T02:17:56;99755.19;;;1.98;95.37
19624;BME280;9959;49.798;9.928;2023-04-26T02:20:23;99753.91;;;2.02;95.42
19624;BME280;9959;49.798;9.928;2023-04-26T02:22:50;99747.97;;;2.08;95.25
19624;BME280;9959;49.798;9.928;2023-04-26T02:25:17;99748.91;;;1.99;95.94
19624;BME280;9959;49.798;9.928;2023-04-26T02:27:44;99756.25;;;2.05;95.64
19624;BME280;9959;49.798;9.928;2023-04-26T02:30:12;99757.56;;;2.01;95.28
19624;BME280;9959;49.798;9.928;2023-04-26T02:32:39;99757.44;;;1.85;96.04
19624;BME280;9959;49.798;9.928;2023-04-26T02:35:06;99762.44;;;1.88;96.53
19624;BME280;9959;49.798;9.928;2023-04-26T02:37:33;99764.25;;;1.69;97.38
19624;BME280;9959;49.798;9.928;2023-04-26T02:40:00;99759.88;;;1.60;99.47
19624;BME280;9959;49.798;9.928;2023-04-26T02:42:27;99759.09;;;1.50;100.00
19624;BME280;9959;49.798;9.928;2023-04-26T02:44:53;99763.34;;;1.43;100.00
19624;BME280;9959;49.798;9.928;2023-04-26T02:47:20;99757.97;;;1.53;100.00
19624;BME280;9959;49.798;9.928;2023-04-26T02:49:48;99759.25;;;1.66;100.00
19624;BME280;9959;49.798;9.928;2023-04-26T02:52:14;99765.53;;;1.48;100.00
19624;BME280;9959;49.798;9.928;2023-04-26T02:54:42;99758.50;;;1.56;100.00
19624;BME280;9959;49.798;9.928;2023-04-26T02:57:08;99763.44;;;1.51;100.00
19624;BME280;9959;49.798;9.928;2023-04-26T02:59:35;99760.88;;;1.59;100.00
19624;BME280;9959;49.798;9.928;2023-04-26T03:02:02;99756.50;;;1.41;100.00
19624;BME280;9959;49.798;9.928;2023-04-26T03:04:32;99768.06;;;1.49;100.00
19624;BME280;9959;49.798;9.928;2023-04-26T03:06:59;99763.78;;;1.39;100.00
19624;BME280;9959;49.798;9.928;2023-04-26T03:09:26;99757.56;;;1.30;100.00
19624;BME280;9959;49.798;9.928;2023-04-26T03:11:53;99757.19;;;1.25;100.00
19624;BME280;9959;49.798;9.928;2023-04-26T03:14:20;99763.47;;;1.24;100.00
19624;BME280;9959;49.798;9.928;2023-04-26T03:16:46;99759.16;;;1.23;100.00
19624;BME280;9959;49.798;9.928;2023-04-26T03:19:16;99763.78;;;1.21;100.00
19624;BME280;9959;49.798;9.928;2023-04-26T03:21:43;99759.75;;;1.17;100.00
19624;BME280;9959;49.798;9.928;2023-04-26T03:24:10;99760.19;;;1.12;100.00
19624;BME280;9959;49.798;9.928;2023-04-26T03:26:37;99762.69;;;1.14;100.00
19624;BME280;9959;49.798;9.928;2023-04-26T03:29:04;99767.25;;;1.04;100.00
19624;BME280;9959;49.798;9.928;2023-04-26T03:31:30;99768.69;;;1.16;100.00
19624;BME280;9959;49.798;9.928;2023-04-26T03:33:57;99758.28;;;1.05;100.00
19624;BME280;9959;49.798;9.928;2023-04-26T03:36:24;99763.94;;;0.92;100.00
19624;BME280;9959;49.798;9.928;2023-04-26T03:38:54;99756.97;;;0.91;100.00
19624;BME280;9959;49.798;9.928;2023-04-26T03:41:22;99758.09;;;0.88;100.00
19624;BME280;9959;49.798;9.928;2023-04-26T03:43:48;99760.56;;;0.99;100.00
19624;BME280;9959;49.798;9.928;2023-04-26T03:46:15;99769.06;;;1.21;100.00
19624;BME280;9959;49.798;9.928;2023-04-26T03:48:42;99762.00;;;1.12;100.00
19624;BME280;9959;49.798;9.928;2023-04-26T03:51:09;99762.50;;;0.97;100.00
19624;BME280;9959;49.798;9.928;2023-04-26T03:53:36;99759.59;;;0.91;100.00
19624;BME280;9959;49.798;9.928;2023-04-26T03:56:03;99763.59;;;1.05;100.00
19624;BME280;9959;49.798;9.928;2023-04-26T03:58:29;99760.44;;;0.91;100.00
19624;BME280;9959;49.798;9.928;2023-04-26T04:00:56;99755.16;;;0.91;100.00
19624;BME280;9959;49.798;9.928;2023-04-26T04:03:26;99766.16;;;0.96;100.00
19624;BME280;9959;49.798;9.928;2023-04-26T04:05:56;99764.47;;;0.95;100.00
19624;BME280;9959;49.798;9.928;2023-04-26T04:08:22;99765.84;;;0.99;100.00
19624;BME280;9959;49.798;9.928;2023-04-26T04:10:49;99775.63;;;0.99;100.00
19624;BME280;9959;49.798;9.928;2023-04-26T04:13:16;99783.44;;;1.00;100.00
19624;BME280;9959;49.798;9.928;2023-04-26T04:15:43;99771.94;;;1.10;100.00
19624;BME280;9959;49.798;9.928;2023-04-26T04:18:10;99774.50;;;1.01;100.00
19624;BME280;9959;49.798;9.928;2023-04-26T04:20:37;99772.72;;;0.92;100.00
19624;BME280;9959;49.798;9.928;2023-04-26T04:23:04;99766.44;;;0.93;100.00
19624;BME280;9959;49.798;9.928;2023-04-26T04:25:33;99770.38;;;0.89;100.00
19624;BME280;9959;49.798;9.928;2023-04-26T04:28:03;99777.91;;;0.84;100.00
19624;BME280;9959;49.798;9.928;2023-04-26T04:30:30;99775.97;;;0.86;100.00
19624;BME280;9959;49.798;9.928;2023-04-26T04:32:57;99793.81;;;0.94;100.00
19624;BME280;9959;49.798;9.928;2023-04-26T04:35:25;99779.13;;;0.99;100.00
19624;BME280;9959;49.798;9.928;2023-04-26T04:37:54;99774.78;;;0.98;100.00
19624;BME280;9959;49.798;9.928;2023-04-26T04:40:24;99784.91;;;0.85;100.00
19624;BME280;9959;49.798;9.928;2023-04-26T04:42:51;99780.56;;;0.84;100.00
19624;BME280;9959;49.798;9.928;2023-04-26T04:45:19;99789.84;;;1.08;100.00
19624;BME280;9959;49.798;9.928;2023-04-26T04:47:47;99799.00;;;1.13;100.00
19624;BME280;9959;49.798;9.928;2023-04-26T04:50:14;99793.53;;;1.15;100.00
19624;BME280;9959;49.798;9.928;2023-04-26T04:52:41;99796.31;;;1.23;100.00
19624;BME280;9959;49.798;9.928;2023-04-26T04:55:08;99790.59;;;1.18;100.00
19624;BME280;9959;49.798;9.928;2023-04-26T04:57:35;99800.13;;;1.11;100.00
19624;BME280;9959;49.798;9.928;2023-04-26T05:00:03;99800.91;;;1.21;100.00
19624;BME280;9959;49.798;9.928;2023-04-26T05:02:38;99800.63;;;1.24;100.00
19624;BME280;9959;49.798;9.928;2023-04-26T05:05:05;99796.16;;;1.24;100.00
19624;BME280;9959;49.798;9.928;2023-04-26T05:07:32;99798.06;;;1.32;100.00
19624;BME280;9959;49.798;9.928;2023-04-26T05:09:59;99797.00;;;1.25;100.00
19624;BME280;9959;49.798;9.928;2023-04-26T05:12:26;99803.97;;;1.26;100.00
19624;BME280;9959;49.798;9.928;2023-04-26T05:14:53;99800.78;;;1.40;100.00
19624;BME280;9959;49.798;9.928;2023-04-26T05:17:20;99815.25;;;1.55;99.50
19624;BME280;9959;49.798;9.928;2023-04-26T05:19:47;99808.94;;;1.56;98.99
19624;BME280;9959;49.798;9.928;2023-04-26T05:22:14;99812.69;;;1.63;98.86
19624;BME280;9959;49.798;9.928;2023-04-26T05:24:47;99808.50;;;1.61;97.34
19624;BME280;9959;49.798;9.928;2023-04-26T05:27:15;99819.56;;;1.74;97.32
19624;BME280;9959;49.798;9.928;2023-04-26T05:29:42;99825.34;;;1.69;96.46
19624;BME280;9959;49.798;9.928;2023-04-26T05:32:09;99826.78;;;1.82;95.40
19624;BME280;9959;49.798;9.928;2023-04-26T05:34:37;99835.75;;;1.81;95.15
19624;BME280;9959;49.798;9.928;2023-04-26T05:37:04;99830.13;;;1.84;95.02
19624;BME280;9959;49.798;9.928;2023-04-26T05:39:31;99831.22;;;1.91;94.95
19624;BME280;9959;49.798;9.928;2023-04-26T05:41:59;99832.25;;;1.98;94.77
19624;BME280;9959;49.798;9.928;2023-04-26T05:44:30;99832.41;;;2.14;94.51
19624;BME280;9959;49.798;9.928;2023-04-26T05:46:58;99833.97;;;2.25;93.24
19624;BME280;9959;49.798;9.928;2023-04-26T05:49:25;99841.19;;;2.32;92.58
19624;BME280;9959;49.798;9.928;2023-04-26T05:51:52;99834.94;;;2.42;92.06
19624;BME280;9959;49.798;9.928;2023-04-26T05:54:19;99837.03;;;2.56;92.41
19624;BME280;9959;49.798;9.928;2023-04-26T05:56:47;99841.44;;;2.65;90.95
19624;BME280;9959;49.798;9.928;2023-04-26T05:59:14;99848.09;;;2.69;90.00
19624;BME280;9959;49.798;9.928;2023-04-26T06:01:41;99839.28;;;2.68;90.56
19624;BME280;9959;49.798;9.928;2023-04-26T06:04:09;99847.66;;;2.82;89.50
19624;BME280;9959;49.798;9.928;2023-04-26T06:06:37;99846.53;;;2.84;88.98
19624;BME280;9959;49.798;9.928;2023-04-26T06:09:04;99852.25;;;2.97;88.91
19624;BME280;9959;49.798;9.928;2023-04-26T06:11:31;99847.31;;;3.11;88.97
19624;BME280;9959;49.798;9.928;2023-04-26T06:13:58;99848.25;;;3.27;87.73
19624;BME280;9959;49.798;9.928;2023-04-26T06:16:25;99839.13;;;3.38;86.86
19624;BME280;9959;49.798;9.928;2023-04-26T06:18:53;99830.50;;;3.44;86.79
19624;BME280;9959;49.798;9.928;2023-04-26T06:21:20;99842.56;;;3.72;85.96
19624;BME280;9959;49.798;9.928;2023-04-26T06:23:48;99842.56;;;3.72;85.12
19624;BME280;9959;49.798;9.928;2023-04-26T06:26:16;99828.25;;;3.90;84.90
19624;BME280;9959;49.798;9.928;2023-04-26T06:28:43;99838.44;;;4.02;84.30
19624;BME280;9959;49.798;9.928;2023-04-26T06:31:13;99840.63;;;4.23;83.01
19624;BME280;9959;49.798;9.928;2023-04-26T06:33:40;99848.63;;;4.31;81.92
19624;BME280;9959;49.798;9.928;2023-04-26T06:36:10;99845.94;;;4.48;81.75
19624;BME280;9959;49.798;9.928;2023-04-26T06:38:38;99842.13;;;4.58;80.62
19624;BME280;9959;49.798;9.928;2023-04-26T06:41:05;99846.91;;;4.71;80.61
19624;BME280;9959;49.798;9.928;2023-04-26T06:43:33;99852.88;;;4.97;79.32
19624;BME280;9959;49.798;9.928;2023-04-26T06:46:00;99856.19;;;5.07;77.66
19624;BME280;9959;49.798;9.928;2023-04-26T06:48:27;99855.97;;;5.25;75.76
19624;BME280;9959;49.798;9.928;2023-04-26T06:50:56;99843.03;;;5.45;74.91
19624;BME280;9959;49.798;9.928;2023-04-26T06:53:24;99851.97;;;5.60;73.65
19624;BME280;9959;49.798;9.928;2023-04-26T06:55:51;99848.25;;;5.69;73.90
19624;BME280;9959;49.798;9.928;2023-04-26T06:58:19;99848.44;;;5.99;72.62
19624;BME280;9959;49.798;9.928;2023-04-26T07:00:47;99849.72;;;6.03;71.46
19624;BME280;9959;49.798;9.928;2023-04-26T07:03:14;99844.69;;;6.08;72.22
19624;BME280;9959;49.798;9.928;2023-04-26T07:05:41;99860.16;;;6.43;70.40
19624;BME280;9959;49.798;9.928;2023-04-26T07:08:08;99851.09;;;6.44;70.78
19624;BME280;9959;49.798;9.928;2023-04-26T07:10:35;99850.53;;;6.72;68.13
19624;BME280;9959;49.798;9.928;2023-04-26T07:13:03;99841.47;;;6.73;69.00
19624;BME280;9959;49.798;9.928;2023-04-26T07:15:32;99850.53;;;6.87;67.50
19624;BME280;9959;49.798;9.928;2023-04-26T07:17:59;99851.09;;;6.97;65.92
19624;BME280;9959;49.798;9.928;2023-04-26T07:20:26;99845.84;;;7.03;63.95
19624;BME280;9959;49.798;9.928;2023-04-26T07:22:53;99845.66;;;7.34;60.57
19624;BME280;9959;49.798;9.928;2023-04-26T07:25:20;99843.16;;;7.47;56.78
19624;BME280;9959;49.798;9.928;2023-04-26T07:27:47;99833.25;;;7.63;55.86
19624;BME280;9959;49.798;9.928;2023-04-26T07:30:17;99840.59;;;7.75;56.48
19624;BME280;9959;49.798;9.928;2023-04-26T07:32:46;99834.38;;;8.11;55.74
19624;BME280;9959;49.798;9.928;2023-04-26T07:35:13;99833.34;;;7.91;55.59
19624;BME280;9959;49.798;9.928;2023-04-26T07:37:42;99840.38;;;7.92;54.94
19624;BME280;9959;49.798;9.928;2023-04-26T07:40:11;99839.66;;;8.04;55.65
19624;BME280;9959;49.798;9.928;2023-04-26T07:42:39;99829.28;;;8.37;54.95
19624;BME280;9959;49.798;9.928;2023-04-26T07:45:09;99828.53;;;8.43;54.88
19624;BME280;9959;49.798;9.928;2023-04-26T07:47:36;99836.53;;;8.65;53.92
19624;BME280;9959;49.798;9.928;2023-04-26T07:50:04;99827.91;;;9.04;52.71
19624;BME280;9959;49.798;9.928;2023-04-26T07:52:31;99830.81;;;8.46;54.47
19624;BME280;9959;49.798;9.928;2023-04-26T07:54:58;99837.56;;;8.64;53.73
19624;BME280;9959;49.798;9.928;2023-04-26T07:57:25;99835.00;;;9.11;52.88
19624;BME280;9959;49.798;9.928;2023-04-26T07:59:53;99831.38;;;8.91;52.47
19624;BME280;9959;49.798;9.928;2023-04-26T08:02:20;99839.03;;;9.29;51.55
19624;BME280;9959;49.798;9.928;2023-04-26T08:05:08;99832.25;;;9.94;49.98
19624;BME280;9959;49.798;9.928;2023-04-26T08:07:35;99829.53;;;9.80;49.50
19624;BME280;9959;49.798;9.928;2023-04-26T08:10:03;99831.50;;;10.20;47.89
19624;BME280;9959;49.798;9.928;2023-04-26T08:12:31;99832.59;;;9.71;49.11
19624;BME280;9959;49.798;9.928;2023-04-26T08:15:02;99829.88;;;10.71;45.54
19624;BME280;9959;49.798;9.928;2023-04-26T08:17:31;99834.66;;;11.60;44.69
19624;BME280;9959;49.798;9.928;2023-04-26T08:19:58;99833.19;;;10.54;46.13
19624;BME280;9959;49.798;9.928;2023-04-26T08:22:26;99840.22;;;11.01;43.18
19624;BME280;9959;49.798;9.928;2023-04-26T08:24:54;99830.41;;;11.84;42.24
19624;BME280;9959;49.798;9.928;2023-04-26T08:27:21;99830.91;;;11.61;42.15
19624;BME280;9959;49.798;9.928;2023-04-26T08:29:50;99828.16;;;12.19;40.39
19624;BME280;9959;49.798;9.928;2023-04-26T08:32:17;99822.56;;;11.76;40.58
19624;BME280;9959;49.798;9.928;2023-04-26T08:34:44;99831.41;;;13.02;40.20
19624;BME280;9959;49.798;9.928;2023-04-26T08:37:12;99818.63;;;12.41;38.89
19624;BME280;9959;49.798;9.928;2023-04-26T08:39:39;99826.09;;;11.05;39.76
19624;BME280;9959;49.798;9.928;2023-04-26T08:42:15;99826.94;;;10.99;38.49
19624;BME280;9959;49.798;9.928;2023-04-26T08:44:44;99839.31;;;11.27;36.56
19624;BME280;9959;49.798;9.928;2023-04-26T08:47:17;99825.31;;;10.26;39.20
19624;BME280;9959;49.798;9.928;2023-04-26T08:49:46;99832.78;;;10.30;42.01
19624;BME280;9959;49.798;9.928;2023-04-26T08:52:16;99828.59;;;11.13;39.90
19624;BME280;9959;49.798;9.928;2023-04-26T08:54:50;99824.19;;;11.26;40.01
19624;BME280;9959;49.798;9.928;2023-04-26T08:57:19;99829.41;;;11.07;41.35
19624;BME280;9959;49.798;9.928;2023-04-26T08:59:47;99819.22;;;11.80;40.67
19624;BME280;9959;49.798;9.928;2023-04-26T09:02:18;99814.72;;;11.61;40.48
19624;BME280;9959;49.798;9.928;2023-04-26T09:04:46;99823.81;;;11.73;39.96
19624;BME280;9959;49.798;9.928;2023-04-26T09:10:11;99821.69;;;11.31;40.72
19624;BME280;9959;49.798;9.928;2023-04-26T09:12:39;99823.63;;;10.97;41.51
19624;BME280;9959;49.798;9.928;2023-04-26T09:15:07;99812.97;;;11.35;40.79
19624;BME280;9959;49.798;9.928;2023-04-26T09:17:38;99817.41;;;11.03;42.02
19624;BME280;9959;49.798;9.928;2023-04-26T09:20:26;99822.53;;;11.25;42.07
19624;BME280;9959;49.798;9.928;2023-04-26T09:23:03;99812.00;;;12.06;40.95
19624;BME280;9959;49.798;9.928;2023-04-26T09:25:31;99812.81;;;12.13;39.36
19624;BME280;9959;49.798;9.928;2023-04-26T09:27:59;99809.88;;;12.46;39.35
19624;BME280;9959;49.798;9.928;2023-04-26T09:30:37;99802.31;;;14.19;35.88
19624;BME280;9959;49.798;9.928;2023-04-26T09:33:05;99800.56;;;13.95;36.06
19624;BME280;9959;49.798;9.928;2023-04-26T09:35:37;99793.75;;;13.26;36.17
19624;BME280;9959;49.798;9.928;2023-04-26T09:38:12;99794.75;;;12.38;38.08
19624;BME280;9959;49.798;9.928;2023-04-26T09:40:41;99783.94;;;12.38;38.45
19624;BME280;9959;49.798;9.928;2023-04-26T09:43:13;99792.81;;;11.89;39.42
19624;BME280;9959;49.798;9.928;2023-04-26T09:45:49;99791.06;;;11.63;39.82
19624;BME280;9959;49.798;9.928;2023-04-26T09:48:21;99800.16;;;11.69;39.01
19624;BME280;9959;49.798;9.928;2023-04-26T09:50:50;99790.19;;;11.69;38.71
19624;BME280;9959;49.798;9.928;2023-04-26T09:55:53;99795.69;;;12.50;38.34
19624;BME280;9959;49.798;9.928;2023-04-26T09:58:21;99787.56;;;12.01;39.97
19624;BME280;9959;49.798;9.928;2023-04-26T10:00:52;99784.19;;;11.67;40.79
19624;BME280;9959;49.798;9.928;2023-04-26T10:03:21;99790.41;;;12.06;40.02
19624;BME280;9959;49.798;9.928;2023-04-26T10:05:49;99793.09;;;12.37;39.49
19624;BME280;9959;49.798;9.928;2023-04-26T10:08:17;99789.72;;;11.85;39.65
19624;BME280;9959;49.798;9.928;2023-04-26T10:10:46;99804.00;;;12.24;39.44
19624;BME280;9959;49.798;9.928;2023-04-26T10:13:14;99800.44;;;12.55;38.50
19624;BME280;9959;49.798;9.928;2023-04-26T10:15:42;99797.00;;;12.66;38.86
19624;BME280;9959;49.798;9.928;2023-04-26T10:18:09;99798.09;;;13.93;36.27
19624;BME280;9959;49.798;9.928;2023-04-26T10:20:43;99791.91;;;13.56;36.34
19624;BME280;9959;49.798;9.928;2023-04-26T10:23:19;99788.25;;;12.89;37.72
19624;BME280;9959;49.798;9.928;2023-04-26T10:25:47;99785.19;;;14.07;35.52
19624;BME280;9959;49.798;9.928;2023-04-26T10:28:17;99783.28;;;14.07;36.61
19624;BME280;9959;49.798;9.928;2023-04-26T10:30:58;99786.97;;;12.73;36.70
19624;BME280;9959;49.798;9.928;2023-04-26T10:33:25;99785.81;;;12.63;36.17
19624;BME280;9959;49.798;9.928;2023-04-26T10:36:08;99788.09;;;13.27;36.18
19624;BME280;9959;49.798;9.928;2023-04-26T10:38:39;99782.50;;;12.61;37.04
19624;BME280;9959;49.798;9.928;2023-04-26T10:41:29;99783.31;;;12.61;36.39
19624;BME280;9959;49.798;9.928;2023-04-26T10:44:00;99782.13;;;12.32;37.23
19624;BME280;9959;49.798;9.928;2023-04-26T10:46:49;99780.13;;;12.71;37.17
19624;BME280;9959;49.798;9.928;2023-04-26T10:49:20;99772.63;;;11.98;38.84
19624;BME280;9959;49.798;9.928;2023-04-26T10:52:11;99770.03;;;12.10;38.24
19624;BME280;9959;49.798;9.928;2023-04-26T10:57:13;99772.03;;;12.71;37.29
19624;BME280;9959;49.798;9.928;2023-04-26T11:02:45;99774.91;;;11.50;38.21
19624;BME280;9959;49.798;9.928;2023-04-26T11:05:35;99749.72;;;12.57;37.23
19624;BME280;9959;49.798;9.928;2023-04-26T11:13:38;99747.50;;;13.45;35.90
19624;BME280;9959;49.798;9.928;2023-04-26T11:16:10;99741.88;;;13.10;36.03
19624;BME280;9959;49.798;9.928;2023-04-26T11:18:39;99743.22;;;13.98;35.36
19624;BME280;9959;49.798;9.928;2023-04-26T11:21:08;99741.66;;;15.02;32.98
19624;BME280;9959;49.798;9.928;2023-04-26T11:23:35;99739.88;;;14.37;32.83
19624;BME280;9959;49.798;9.928;2023-04-26T11:26:04;99733.69;;;14.07;32.23
19624;BME280;9959;49.798;9.928;2023-04-26T11:28:33;99738.38;;;13.58;32.63
19624;BME280;9959;49.798;9.928;2023-04-26T11:31:02;99729.16;;;14.31;31.55
19624;BME280;9959;49.798;9.928;2023-04-26T11:33:30;99728.34;;;15.40;30.17
19624;BME280;9959;49.798;9.928;2023-04-26T11:35:57;99728.13;;;14.67;30.99
19624;BME280;9959;49.798;9.928;2023-04-26T11:38:26;99729.47;;;14.11;31.27
19624;BME280;9959;49.798;9.928;2023-04-26T11:40:57;99717.25;;;14.90;31.95
19624;BME280;9959;49.798;9.928;2023-04-26T11:45:58;99714.78;;;13.77;31.61
19624;BME280;9959;49.798;9.928;2023-04-26T11:48:29;99721.22;;;13.64;30.84
19624;BME280;9959;49.798;9.928;2023-04-26T11:50:57;99719.09;;;14.08;31.58
19624;BME280;9959;49.798;9.928;2023-04-26T11:53:37;99719.97;;;13.78;32.37
19624;BME280;9959;49.798;9.928;2023-04-26T11:56:14;99716.25;;;12.95;35.03
19624;BME280;9959;49.798;9.928;2023-04-26T11:58:51;99712.50;;;13.32;33.96
19624;BME280;9959;49.798;9.928;2023-04-26T12:03:49;99713.47;;;13.38;33.60
19624;BME280;9959;49.798;9.928;2023-04-26T12:06:18;99709.50;;;13.82;33.75
19624;BME280;9959;49.798;9.928;2023-04-26T12:08:49;99716.38;;;14.08;33.53
19624;BME280;9959;49.798;9.928;2023-04-26T12:11:18;99716.28;;;14.26;33.21
19624;BME280;9959;49.798;9.928;2023-04-26T12:13:45;99719.78;;;14.45;33.43
19624;BME280;9959;49.798;9.928;2023-04-26T12:16:13;99721.72;;;13.73;34.40
19624;BME280;9959;49.798;9.928;2023-04-26T12:18:53;99720.47;;;13.57;32.31
19624;BME280;9959;49.798;9.928;2023-04-26T12:21:20;99715.03;;;14.40;31.22
19624;BME280;9959;49.798;9.928;2023-04-26T12:23:47;99717.84;;;12.84;33.06
19624;BME280;9959;49.798;9.928;2023-04-26T12:26:14;99712.81;;;13.24;31.76
19624;BME280;9959;49.798;9.928;2023-04-26T12:28:41;99715.13;;;13.02;32.26
19624;BME280;9959;49.798;9.928;2023-04-26T12:31:08;99701.00;;;13.67;32.25
19624;BME280;9959;49.798;9.928;2023-04-26T12:33:35;99698.63;;;14.94;30.66
19624;BME280;9959;49.798;9.928;2023-04-26T12:36:10;99699.56;;;14.99;30.38
19624;BME280;9959;49.798;9.928;2023-04-26T12:38:38;99694.41;;;16.50;26.94
19624;BME280;9959;49.798;9.928;2023-04-26T12:41:05;99699.03;;;15.82;27.13
19624;BME280;9959;49.798;9.928;2023-04-26T12:43:32;99693.13;;;16.02;27.75
19624;BME280;9959;49.798;9.928;2023-04-26T12:46:00;99693.47;;;14.22;29.69
19624;BME280;9959;49.798;9.928;2023-04-26T12:48:27;99707.63;;;14.47;28.91
19624;BME280;9959;49.798;9.928;2023-04-26T12:50:54;99698.06;;;14.68;28.90
19624;BME280;9959;49.798;9.928;2023-04-26T12:53:21;99697.97;;;14.75;29.34
19624;BME280;9959;49.798;9.928;2023-04-26T12:55:48;99686.03;;;15.28;28.89
19624;BME280;9959;49.798;9.928;2023-04-26T12:58:15;99687.78;;;15.62;28.80
19624;BME280;9959;49.798;9.928;2023-04-26T13:00:42;99681.34;;;16.30;28.09
19624;BME280;9959;49.798;9.928;2023-04-26T13:03:10;99690.22;;;16.42;27.38
19624;BME280;9959;49.798;9.928;2023-04-26T13:05:40;99694.09;;;17.02;26.17
19624;BME280;9959;49.798;9.928;2023-04-26T13:08:07;99684.78;;;15.75;27.67
19624;BME280;9959;49.798;9.928;2023-04-26T13:10:34;99689.72;;;16.45;26.54
19624;BME280;9959;49.798;9.928;2023-04-26T13:13:02;99697.25;;;16.38;26.78
19624;BME280;9959;49.798;9.928;2023-04-26T13:15:28;99693.28;;;15.39;28.64
19624;BME280;9959;49.798;9.928;2023-04-26T13:17:55;99690.66;;;16.68;26.04
19624;BME280;9959;49.798;9.928;2023-04-26T13:20:23;99690.50;;;16.24;27.18
19624;BME280;9959;49.798;9.928;2023-04-26T13:22:53;99691.78;;;15.88;27.83
19624;BME280;9959;49.798;9.928;2023-04-26T13:25:19;99683.09;;;16.03;28.04
19624;BME280;9959;49.798;9.928;2023-04-26T13:27:46;99684.16;;;16.02;28.55
19624;BME280;9959;49.798;9.928;2023-04-26T13:30:13;99688.00;;;14.92;29.82
19624;BME280;9959;49.798;9.928;2023-04-26T13:32:40;99684.84;;;13.60;31.14
19624;BME280;9959;49.798;9.928;2023-04-26T13:35:07;99671.97;;;14.79;30.38
19624;BME280;9959;49.798;9.928;2023-04-26T13:37:34;99677.31;;;14.74;30.77
19624;BME280;9959;49.798;9.928;2023-04-26T13:40:01;99681.41;;;14.88;29.97
19624;BME280;9959;49.798;9.928;2023-04-26T13:42:29;99675.66;;;15.98;29.37